Map

Track Data

SID SEASON NUMBER BASIN SUBBASIN NAME ISO_TIME NATURE LAT LON WMO_WIND WMO_PRES WMO_AGENCY TRACK_TYPE DIST2LAND LANDFALL IFLAG USA_AGENCY USA_ATCF_ID USA_LAT USA_LON USA_RECORD USA_STATUS USA_WIND USA_PRES USA_SSHS USA_R34_NE USA_R34_SE USA_R34_SW USA_R34_NW USA_R50_NE USA_R50_SE USA_R50_SW USA_R50_NW USA_R64_NE USA_R64_SE USA_R64_SW USA_R64_NW USA_POCI USA_ROCI USA_RMW USA_EYE TOKYO_LAT TOKYO_LON TOKYO_GRADE TOKYO_WIND TOKYO_PRES TOKYO_R50_DIR TOKYO_R50_LONG TOKYO_R50_SHORT TOKYO_R30_DIR TOKYO_R30_LONG TOKYO_R30_SHORT TOKYO_LAND CMA_LAT CMA_LON CMA_CAT CMA_WIND CMA_PRES HKO_LAT HKO_LON HKO_CAT HKO_WIND HKO_PRES NEWDELHI_LAT NEWDELHI_LON NEWDELHI_GRADE NEWDELHI_WIND NEWDELHI_PRES NEWDELHI_CI NEWDELHI_DP NEWDELHI_POCI REUNION_LAT REUNION_LON REUNION_TYPE REUNION_WIND REUNION_PRES REUNION_TNUM REUNION_CI REUNION_RMW REUNION_R34_NE REUNION_R34_SE REUNION_R34_SW REUNION_R34_NW REUNION_R50_NE REUNION_R50_SE REUNION_R50_SW REUNION_R50_NW REUNION_R64_NE REUNION_R64_SE REUNION_R64_SW REUNION_R64_NW BOM_LAT BOM_LON BOM_TYPE BOM_WIND BOM_PRES BOM_TNUM BOM_CI BOM_RMW BOM_R34_NE BOM_R34_SE BOM_R34_SW BOM_R34_NW BOM_R50_NE BOM_R50_SE BOM_R50_SW BOM_R50_NW BOM_R64_NE BOM_R64_SE BOM_R64_SW BOM_R64_NW BOM_ROCI BOM_POCI BOM_EYE BOM_POS_METHOD BOM_PRES_METHOD NADI_LAT NADI_LON NADI_CAT NADI_WIND NADI_PRES WELLINGTON_LAT WELLINGTON_LON WELLINGTON_WIND WELLINGTON_PRES DS824_LAT DS824_LON DS824_STAGE DS824_WIND DS824_PRES TD9636_LAT TD9636_LON TD9636_STAGE TD9636_WIND TD9636_PRES TD9635_LAT TD9635_LON TD9635_WIND TD9635_PRES TD9635_ROCI NEUMANN_LAT NEUMANN_LON NEUMANN_CLASS NEUMANN_WIND NEUMANN_PRES MLC_LAT MLC_LON MLC_CLASS MLC_WIND MLC_PRES USA_GUST BOM_GUST BOM_GUST_PER REUNION_GUST REUNION_GUST_PER USA_SEAHGT USA_SEARAD_NE USA_SEARAD_SE USA_SEARAD_SW USA_SEARAD_NW STORM_SPEED STORM_DIR
1996192N19152 1996 51 WP MM EVE 1996-07-10 06:00:00 NR 19.3000 151.500 main 2082 2071 O_____________ jtwc_wp WP071996 19.3000 151.500 15 -1 5 258
1996192N19152 1996 51 WP MM EVE 1996-07-10 09:00:00 NR 19.2501 151.250 main 2066 2065 P_____________ WP071996 19.2501 151.250 15 -1 5 258
1996192N19152 1996 51 WP MM EVE 1996-07-10 12:00:00 NR 19.2000 151.000 main 2065 2054 O_____________ jtwc_wp WP071996 19.2000 151.000 15 -1 5 258
1996192N19152 1996 51 WP MM EVE 1996-07-10 15:00:00 NR 19.1500 150.750 main 2064 2049 P_____________ WP071996 19.1500 150.750 15 -1 5 258
1996192N19152 1996 51 WP MM EVE 1996-07-10 18:00:00 NR 19.1000 150.500 main 2049 2039 O_____________ jtwc_wp WP071996 19.1000 150.500 15 -1 5 257
1996192N19152 1996 51 WP MM EVE 1996-07-10 21:00:00 NR 19.0425 150.250 main 2049 2034 P_____________ WP071996 19.0425 150.250 15 -1 5 258
1996192N19152 1996 51 WP MM EVE 1996-07-11 00:00:00 NR 19.0000 150.000 main 2034 2025 O_____________ jtwc_wp WP071996 19.0000 150.000 15 -1 5 264
1996192N19152 1996 51 WP MM EVE 1996-07-11 03:00:00 NR 18.9924 149.765 main 2025 2011 P_____________ WP071996 18.9924 149.765 15 -1 5 270
1996192N19152 1996 51 WP MM EVE 1996-07-11 06:00:00 NR 19.0000 149.500 main 2011 1997 O_____________ jtwc_wp WP071996 19.0000 149.500 15 -1 6 271
1996192N19152 1996 51 WP MM EVE 1996-07-11 09:00:00 NR 19.0000 149.173 main 1997 1979 P_____________ WP071996 19.0000 149.173 15 -1 7 270
1996192N19152 1996 51 WP MM EVE 1996-07-11 12:00:00 NR 19.0000 148.800 main 1979 1962 O_____________ jtwc_wp WP071996 19.0000 148.800 15 -1 7 271
1996192N19152 1996 51 WP MM EVE 1996-07-11 15:00:00 NR 19.0075 148.400 main 1962 1946 P_____________ WP071996 19.0075 148.400 17 -1 8 270
1996192N19152 1996 51 WP MM EVE 1996-07-11 18:00:00 NR 19.0000 148.000 main 1946 1934 O_____________ jtwc_wp WP071996 19.0000 148.000 20 -1 7 265
1996192N19152 1996 51 WP MM EVE 1996-07-11 21:00:00 NR 18.9499 147.635 main 1941 1929 P_____________ WP071996 18.9499 147.635 20 -1 7 261
1996192N19152 1996 51 WP MM EVE 1996-07-12 00:00:00 NR 18.9000 147.300 main 1929 1918 O_____________ jtwc_wp WP071996 18.9000 147.300 20 -1 6 265
1996192N19152 1996 51 WP MM EVE 1996-07-12 03:00:00 NR 18.8924 146.985 main 1918 1908 P_____________ WP071996 18.8924 146.985 22 -1 6 270
1996192N19152 1996 51 WP MM EVE 1996-07-12 06:00:00 NR 18.9000 146.700 main 1908 1901 O_____________ jtwc_wp WP071996 18.9000 146.700 25 -1 5 271
1996192N19152 1996 51 WP MM EVE 1996-07-12 09:00:00 NR 18.8999 146.443 main 1897 1891 P_____________ WP071996 18.8999 146.443 25 -1 5 270
1996192N19152 1996 51 WP MM EVE 1996-07-12 12:00:00 NR 18.9000 146.200 main 1891 1885 O_____________ jtwc_wp WP071996 18.9000 146.200 25 -1 5 270
1996192N19152 1996 51 WP MM EVE 1996-07-12 15:00:00 NR 18.9000 145.950 main 1885 1875 P_____________ WP071996 18.9000 145.950 25 -1 5 270
1996192N19152 1996 51 WP MM EVE 1996-07-12 18:00:00 NR 18.9000 145.700 main 1875 1869 O_____________ jtwc_wp WP071996 18.9000 145.700 25 -1 5 269
1996192N19152 1996 51 WP MM EVE 1996-07-12 21:00:00 NR 18.8924 145.465 main 1869 1861 P_____________ WP071996 18.8924 145.465 27 -1 5 270
1996192N19152 1996 51 WP MM EVE 1996-07-13 00:00:00 NR 18.9000 145.200 main 1861 1853 O_____________ jtwc_wp WP071996 18.9000 145.200 30 -1 6 274
1996192N19152 1996 51 WP MM EVE 1996-07-13 03:00:00 NR 18.9350 144.865 main 1853 1835 P_____________ WP071996 18.9350 144.865 30 -1 7 270
1996192N19152 1996 51 WP MM EVE 1996-07-13 06:00:00 TS 18.9000 144.500 1008 tokyo main 1835 1821 OO____________ jtwc_wp WP071996 19.0000 144.500 30 -1 18.5000 144.500 2 1008 0 0 0 6 270
1996192N19152 1996 51 WP MM EVE 1996-07-13 09:00:00 TS 18.9307 144.188 main 1821 1787 PP____________ WP071996 19.0773 144.165 32 -1 18.6374 144.235 2 1008 0 0 6 292
1996192N19152 1996 51 WP MM EVE 1996-07-13 12:00:00 TS 19.1375 143.863 1008 tokyo main 1787 1739 OO_O__________ jtwc_wp WP071996 19.2000 143.800 35 0 18.9000 143.900 2 1008 0 0 0 19.6000 144.000 TD 25 1005 9 306
1996192N19152 1996 51 WP MM EVE 1996-07-13 15:00:00 TS 19.4386 143.446 main 1735 1687 PP_P__________ WP071996 19.3775 143.358 37 0 19.3501 143.458 2 1008 0 0 19.7377 143.600 TD 25 1005 10 308
1996192N19152 1996 51 WP MM EVE 1996-07-13 18:00:00 TS 19.7545 143.018 1008 tokyo main 1677 1644 OO_O__________ jtwc_wp WP071996 19.6000 142.900 40 0 19.8000 143.000 2 1008 0 0 0 19.9000 143.200 TD 25 1005 9 307
1996192N19152 1996 51 WP MM EVE 1996-07-13 21:00:00 TS 19.9982 142.645 main 1640 1607 PP_P__________ WP071996 19.8499 142.492 42 0 20.0448 142.642 2 1006 0 0 20.0999 142.800 TD 25 1005 8 302
1996192N19152 1996 51 WP MM EVE 1996-07-14 00:00:00 TS 20.2000 142.269 1004 tokyo main 1607 1571 OOOO__________ jtwc_wp WP071996 20.1000 142.100 45 0 20.2000 142.300 2 1004 0 0 0 20.2000 142.300 1 29 1004 20.3000 142.400 TD 25 1005 8 297
1996192N19152 1996 51 WP MM EVE 1996-07-14 03:00:00 TS 20.3675 141.871 main 1571 1546 PPPP__________ WP071996 20.2999 141.700 50 0 20.3575 141.900 2 1002 0 0 20.3578 141.885 1 29 1002 20.4499 142.007 TD 27 1002 8 294
1996192N19152 1996 51 WP MM EVE 1996-07-14 06:00:00 TS 20.5267 141.473 35 1000 tokyo main 1546 1511 OOOO__________ jtwc_wp WP071996 20.5000 141.300 55 0 20.5000 141.500 3 35 1000 0 9 90 90 0 20.5000 141.500 1 29 1000 20.6000 141.600 TD 30 1000 8 294
1996192N19152 1996 51 WP MM EVE 1996-07-14 09:00:00 TS 20.6861 141.093 main 1511 1476 PPPP__________ WP071996 20.7424 140.900 60 0 20.6273 141.157 3 35 999 0 9 90 90 20.6273 141.157 1 31 999 20.7474 141.157 TD 32 998 8 297
1996192N19152 1996 51 WP MM EVE 1996-07-14 12:00:00 TS 20.9000 140.700 35 998 tokyo main 1476 1432 OOOO__________ jtwc_wp WP071996 21.0000 140.500 65 1 20.8000 140.800 3 35 998 0 9 90 90 0 20.8000 140.800 2 34 998 21.0000 140.700 TS 35 996 9 305
1996192N19152 1996 51 WP MM EVE 1996-07-14 15:00:00 TS 21.2318 140.270 main 1432 1374 PPPP__________ WP071996 21.2499 140.107 67 1 21.0776 140.358 3 37 996 0 9 100 100 21.0775 140.365 2 36 996 21.5224 140.251 TS 40 993 11 310
1996192N19152 1996 51 WP MM EVE 1996-07-14 18:00:00 TS 21.5750 139.825 40 994 tokyo main 1374 1333 OOOO__________ jtwc_wp WP071996 21.5000 139.700 70 1 21.4000 139.900 3 40 994 0 9 110 110 0 21.4000 139.900 2 38 994 22.0000 139.800 TS 45 990 10 305
1996192N19152 1996 51 WP MM EVE 1996-07-14 21:00:00 TS 21.8092 139.395 main 1333 1291 PPPP__________ WP071996 21.7499 139.257 72 1 21.6997 139.515 3 45 989 0 9 110 110 21.6998 139.457 2 43 989 22.0874 139.349 TS 52 985 9 299
1996192N19152 1996 51 WP MM EVE 1996-07-15 00:00:00 TS 22.0250 138.950 50 985 tokyo main 1291 1235 OOOO__________ jtwc_wp WP071996 22.0000 138.800 75 1 22.0000 139.100 4 50 985 0 9 110 110 0 22.0000 139.000 3 48 985 22.1000 138.900 STS 60 980 10 300
1996192N19152 1996 51 WP MM EVE 1996-07-15 03:00:00 TS 22.3037 138.472 main 1235 1179 PPPP__________ WP071996 22.2573 138.357 85 2 22.3151 138.565 4 55 980 0 9 115 115 22.3149 138.508 3 53 982 22.3273 138.458 STS 65 975 11 301
1996192N19152 1996 51 WP MM EVE 1996-07-15 06:00:00 TS 22.5750 137.975 60 975 tokyo main 1179 1133 OOOO__________ jtwc_wp WP071996 22.5000 137.900 95 2 22.6000 138.000 4 60 975 9 30 30 9 120 120 0 22.6000 138.000 3 58 980 22.6000 138.000 T 70 970 10 297
1996192N19152 1996 51 WP MM EVE 1996-07-15 09:00:00 TS 22.7786 137.475 main 1133 1088 PPPP__________ WP071996 22.7000 137.392 105 3 22.8073 137.492 4 62 972 9 35 35 9 125 125 22.8073 137.500 3 61 977 22.7998 137.515 T 70 970 10 293
1996192N19152 1996 51 WP MM EVE 1996-07-15 12:00:00 TS 22.9750 136.975 65 970 tokyo main 1088 1042 OOOO__________ jtwc_wp WP071996 22.9000 136.900 115 4 23.0000 137.000 5 65 970 9 40 40 9 130 130 0 23.0000 137.000 4 64 975 23.0000 137.000 T 70 970 10 295
1996192N19152 1996 51 WP MM EVE 1996-07-15 15:00:00 TS 23.2119 136.467 main 1042 987 PPPP__________ WP071996 23.1348 136.485 125 4 23.2350 136.477 5 67 965 9 50 50 9 140 140 23.2350 136.477 4 66 970 23.2427 136.428 T 75 965 10 299
1996192N19152 1996 51 WP MM EVE 1996-07-15 18:00:00 TS 23.4750 136.000 70 960 tokyo main 987 947 OOOO__________ jtwc_wp WP071996 23.4000 136.100 135 4 23.5000 136.000 5 70 960 9 60 60 9 150 150 0 23.5000 136.000 4 68 965 23.5000 135.900 T 80 960 9 305
1996192N19152 1996 51 WP MM EVE 1996-07-15 21:00:00 TS 23.7493 135.618 main 947 903 PPPP__________ WP071996 23.6849 135.700 137 5 23.7929 135.640 5 77 952 9 70 70 9 165 165 23.7847 135.635 4 72 962 23.7348 135.497 T 80 960 9 311
1996192N19152 1996 51 WP MM EVE 1996-07-16 00:00:00 TS 24.0500 135.275 85 945 tokyo main 893 849 OOOO__________ jtwc_wp WP071996 24.0000 135.300 140 5 24.1000 135.300 5 85 945 9 80 80 9 180 180 0 24.1000 135.300 4 77 960 24.0000 135.200 T 80 960 9 315
1996192N19152 1996 51 WP MM EVE 1996-07-16 03:00:00 TS 24.3780 134.934 85 940 tokyo main 844 800 POPP__________ WP071996 24.3424 134.900 132 4 24.4000 134.900 5 85 940 9 80 80 9 180 180 0 24.4425 134.907 4 82 957 24.3270 135.029 T 80 960 9 318
1996192N19152 1996 51 WP MM EVE 1996-07-16 06:00:00 TS 24.7500 134.575 85 940 tokyo main 790 742 OOOO__________ jtwc_wp WP071996 24.7000 134.500 125 4 24.8000 134.500 5 85 940 9 80 80 9 180 180 0 24.8000 134.500 5 87 955 24.7000 134.800 T 80 960 10 316
1996192N19152 1996 51 WP MM EVE 1996-07-16 09:00:00 TS 25.0982 134.174 85 940 tokyo main 742 680 POPP__________ WP071996 25.0499 134.092 120 4 25.1000 134.200 5 85 940 9 80 80 9 180 180 0 25.1423 134.107 5 87 955 25.1003 134.295 T 80 960 11 313
1996192N19152 1996 51 WP MM EVE 1996-07-16 12:00:00 TS 25.5000 133.700 85 940 tokyo main 680 633 OOOO__________ jtwc_wp WP071996 25.4000 133.700 115 4 25.6000 133.700 5 85 940 9 80 80 9 180 180 0 25.5000 133.700 5 87 955 25.5000 133.700 T 80 960 11 312
1996192N19152 1996 51 WP MM EVE 1996-07-16 15:00:00 TS 25.8500 133.235 85 940 tokyo main 629 573 POPP__________ WP071996 25.7424 133.342 115 4 25.9000 133.200 5 85 940 9 80 80 9 180 180 0 25.9001 133.235 5 87 955 25.8575 133.162 T 80 960 11 313
1996192N19152 1996 51 WP MM EVE 1996-07-16 18:00:00 TS 26.2250 132.825 85 940 tokyo main 573 532 OOOO__________ jtwc_wp WP071996 26.1000 133.000 115 4 26.3000 132.800 5 85 940 2 80 60 9 180 180 0 26.3000 132.800 5 87 955 26.2000 132.700 T 80 960 10 317
1996192N19152 1996 51 WP MM EVE 1996-07-16 21:00:00 TS 26.5655 132.501 85 940 tokyo main 521 480 POPP__________ WP071996 26.4849 132.650 112 3 26.6000 132.500 5 85 940 2 80 60 9 180 180 0 26.6422 132.484 5 87 955 26.5347 132.369 T 80 960 9 322
1996192N19152 1996 51 WP MM EVE 1996-07-17 00:00:00 TS 26.9500 132.200 80 945 tokyo main 469 418 OOOO__________ jtwc_wp WP071996 26.9000 132.300 110 3 27.0000 132.200 5 80 945 9 60 60 9 160 160 0 27.0000 132.200 5 87 955 26.9000 132.100 T 80 960 10 325
1996192N19152 1996 51 WP MM EVE 1996-07-17 03:00:00 TS 27.3819 131.868 80 945 tokyo main 418 365 POPP__________ WP071996 27.3425 131.942 105 3 27.4000 131.900 5 80 945 9 60 60 9 160 160 0 27.4501 131.843 5 82 957 27.3350 131.785 T 80 960 11 326
1996192N19152 1996 51 WP MM EVE 1996-07-17 06:00:00 TS 27.8500 131.525 80 945 tokyo main 354 317 OOOO__________ jtwc_wp WP071996 27.8000 131.600 100 3 27.9000 131.500 5 80 945 9 60 60 9 160 160 0 27.9000 131.500 4 77 960 27.8000 131.500 T 80 960 10 329
1996192N19152 1996 51 WP MM EVE 1996-07-17 09:00:00 TS 28.2624 131.270 80 945 tokyo main 306 269 POPP__________ WP071996 28.2575 131.277 100 3 28.3000 131.300 5 80 945 9 60 60 9 160 160 0 28.2424 131.220 4 77 960 28.2499 131.285 T 80 960 9 331
1996192N19152 1996 51 WP MM EVE 1996-07-17 12:00:00 TS 28.6500 131.025 75 950 tokyo main 258 212 OOOO__________ jtwc_wp WP071996 28.7000 131.000 100 3 28.6000 131.000 5 75 950 9 50 50 9 160 160 0 28.6000 131.000 4 77 960 28.7000 131.100 T 80 960 9 334
1996192N19152 1996 51 WP MM EVE 1996-07-17 15:00:00 TS 29.1068 130.797 75 950 tokyo main 212 167 POPP__________ WP071996 29.0924 130.770 107 3 29.1000 130.700 5 75 950 9 50 50 9 160 160 0 29.0849 130.835 4 77 960 29.1500 130.885 T 80 960 10 340
1996192N19152 1996 51 WP MM EVE 1996-07-17 18:00:00 TS 29.5750 130.650 75 950 tokyo main 156 113 OOOO__________ jtwc_wp WP071996 29.5000 130.600 115 4 29.6000 130.600 5 75 950 9 50 50 9 160 160 0 29.6000 130.700 4 77 960 29.6000 130.700 T 80 960 10 345
1996192N19152 1996 51 WP MM EVE 1996-07-17 21:00:00 TS 30.0406 130.504 75 950 tokyo main 113 69 POPP__________ WP071996 29.9775 130.448 115 4 30.1000 130.500 5 75 950 9 50 50 9 160 160 0 30.0500 130.513 4 77 962 30.0350 130.555 T 75 965 10 348
1996192N19152 1996 51 WP MM EVE 1996-07-17 23:00:00 TS 30.3520 130.457 75 950 tokyo main 69 62 POPP__________ WP071996 30.3223 130.400 115 4 30.4000 130.500 5 75 950 9 50 50 9 160 160 1 30.3469 130.422 4 77 964 30.3386 130.505 T 71 968 9 351
1996192N19152 1996 51 WP MM EVE 1996-07-18 00:00:00 TS 30.5000 130.425 75 955 tokyo main 62 19 OOOO__________ jtwc_wp WP071996 30.5000 130.400 115 4 30.5000 130.400 5 75 955 9 50 50 9 160 160 0 30.5000 130.400 4 77 965 30.5000 130.500 T 70 970 10 4
1996192N19152 1996 51 WP MM EVE 1996-07-18 03:00:00 TS 31.0194 130.507 75 960 tokyo main 19 9 POPP__________ WP071996 31.0500 130.512 102 3 31.0000 130.500 5 75 960 9 50 50 9 160 160 0 30.9850 130.447 4 70 970 31.0425 130.570 T 62 975 10 9
1996192N19152 1996 51 WP MM EVE 1996-07-18 04:00:00 TS 31.1799 130.544 75 960 tokyo main 9 0 POPP__________ WP071996 31.2358 130.572 98 3 31.1000 130.500 5 75 960 9 50 50 9 160 160 1 31.1533 130.490 4 68 971 31.2304 130.611 T 59 976 11 13
1996192N19152 1996 51 WP MM EVE 1996-07-18 06:00:00 TS 31.5500 130.650 65 970 tokyo main 9 0 OOOO__________ jtwc_wp WP071996 31.6000 130.700 90 2 31.5000 130.600 5 65 970 9 40 40 9 160 160 0 31.5000 130.600 4 64 975 31.6000 130.700 STS 55 980 12 15
1996192N19152 1996 51 WP MM EVE 1996-07-18 09:00:00 TS 32.1044 130.832 60 980 tokyo main 0 0 POPP__________ WP071996 32.1150 130.850 77 1 32.1000 130.900 4 60 980 9 30 30 9 150 150 0 32.0726 130.792 4 61 977 32.1299 130.785 STS 52 982 11 13
1996192N19152 1996 51 WP MM EVE 1996-07-18 12:00:00 TS 32.6250 130.950 50 990 tokyo main 0 0 OOOO__________ jtwc_wp WP071996 32.6000 131.000 65 1 32.7000 130.900 4 50 990 0 9 110 110 0 32.6000 131.000 3 58 980 32.6000 130.900 STS 50 985 10 12
1996192N19152 1996 51 WP MM EVE 1996-07-18 15:00:00 TS 33.0636 131.080 40 996 tokyo main 0 0 POPP__________ WP071996 33.0874 131.135 60 0 33.2000 131.000 3 40 996 0 9 60 60 0 32.9798 131.128 3 51 985 32.9873 131.055 STS 47 987 8 19
1996192N19152 1996 51 WP MM EVE 1996-07-18 18:00:00 TS 33.4000 131.275 40 996 tokyo main 0 0 OOOO__________ jtwc_wp WP071996 33.5000 131.300 55 0 33.5000 131.200 3 40 996 0 9 60 60 0 33.3000 131.300 2 44 990 33.3000 131.300 TS 45 990 7 35
1996192N19152 1996 51 WP MM EVE 1996-07-18 21:00:00 TS 33.6654 131.576 35 998 tokyo main 11 0 POPP__________ WP071996 33.8022 131.498 50 0 33.6000 131.600 3 35 998 0 9 30 30 0 33.6871 131.575 2 39 994 33.5722 131.633 TS 40 994 8 54
1996192N19152 1996 51 WP MM EVE 1996-07-19 00:00:00 TS 33.8750 132.050 35 998 tokyo main 0 0 OOOO__________ jtwc_wp WP071996 34.0000 131.800 45 0 33.7000 132.300 3 35 998 0 9 30 30 0 34.0000 132.000 2 34 998 33.8000 132.100 TS 35 998 9 67
1996192N19152 1996 51 WP MM EVE 1996-07-19 03:00:00 TS 34.0429 132.625 main 11 9 PPPP__________ WP071996 34.1076 132.256 42 0 33.9257 132.887 3 999 0 9 34.1230 132.621 2 31 999 34.0155 132.735 TS 32 999 10 72
1996192N19152 1996 51 WP MM EVE 1996-07-19 06:00:00 TS 34.2000 133.225 1000 tokyo main 14 9 OOOO__________ jtwc_wp WP071996 34.2000 132.800 40 0 34.2000 133.400 2 1000 0 0 0 34.2000 133.300 1 29 1000 34.2000 133.400 TD 30 1000 10 70
1996192N19152 1996 51 WP MM EVE 1996-07-19 09:00:00 TS 34.3910 133.769 main 0 0 PPPP__________ WP071996 34.3999 133.342 37 0 34.4149 133.923 2 1001 0 0 34.3923 133.887 1 29 1001 34.3570 133.923 TD 30 1000 9 67
1996192N19152 1996 51 WP MM EVE 1996-07-19 12:00:00 TS 34.5750 134.275 1002 tokyo main 9 9 OOOO__________ jtwc_wp WP071996 34.6000 133.900 35 0 34.6000 134.400 2 1002 0 0 0 34.6000 134.400 1 29 1002 34.5000 134.400 TD 30 1000 9 67
1996192N19152 1996 51 WP MM EVE 1996-07-19 15:00:00 TS 34.7292 134.753 main 0 0 PPPP__________ WP071996 34.7298 134.458 35 0 34.7723 134.823 2 1002 0 0 34.7721 134.823 1 29 1002 34.6424 134.908 TD 27 1002 8 70
1996192N19152 1996 51 WP MM EVE 1996-07-19 18:00:00 TS 34.8533 135.187 1002 tokyo main 0 0 OOOO__________ jtwc_wp WP071996 34.8000 135.000 35 0 34.9000 135.200 2 1002 0 0 0 34.9000 135.200 1 29 1002 34.8000 135.400 TD 25 1004 7 72
1996192N19152 1996 51 WP MM EVE 1996-07-19 21:00:00 TS 34.9469 135.590 main 0 0 PPPP__________ WP071996 34.8222 135.508 35 0 34.9947 135.542 2 1003 0 0 35.0022 135.585 1 26 1003 34.9903 135.859 TD 25 1004 7 81
1996192N19152 1996 51 WP MM EVE 1996-07-20 00:00:00 TS 34.9538 135.992 1004 tokyo main 0 0 OOOO__________ jtwc_wp WP071996 34.8000 136.000 35 0 35.0000 135.900 2 1004 0 0 0 35.0000 136.000 1 23 1004 35.2000 136.300 TD 25 1004 7 100
1996192N19152 1996 51 WP MM EVE 1996-07-20 03:00:00 TS 34.8299 136.435 main 0 0 PPP___________ WP071996 34.7573 136.500 32 -1 34.8948 136.320 2 1004 0 0 34.8375 136.485 1 23 1004 TD 8 110
1996192N19152 1996 51 WP MM EVE 1996-07-20 06:00:00 TS 34.6667 136.933 1004 tokyo main 0 0 OOO___________ jtwc_wp WP071996 34.7000 137.000 30 -1 34.7000 136.800 2 1004 0 0 0 34.6000 137.000 1 23 1004 9 112
1996192N19152 1996 51 WP MM EVE 1996-07-20 09:00:00 TS 34.4898 137.443 main 22 22 PPP___________ WP071996 34.6648 137.500 30 -1 34.4273 137.328 2 1004 0 0 34.3773 137.500 1 23 1004 9 111
1996192N19152 1996 51 WP MM EVE 1996-07-20 12:00:00 TS 34.3333 137.967 1004 tokyo main 38 33 OOO___________ jtwc_wp WP071996 34.6000 138.000 30 -1 34.2000 137.900 2 1004 0 0 0 34.2000 138.000 1 23 1004 9 105
1996192N19152 1996 51 WP MM EVE 1996-07-20 15:00:00 TS 34.2566 138.505 main 43 38 PPP___________ WP071996 34.4723 138.500 27 -1 34.1701 138.514 2 1004 0 0 34.1273 138.500 1 23 1004 9 99
1996192N19152 1996 51 WP MM EVE 1996-07-20 18:00:00 TS 34.2000 139.033 1004 tokyo main 48 48 OOO___________ jtwc_wp WP071996 34.3000 139.000 25 -1 34.2000 139.100 2 1004 0 0 0 34.1000 139.000 1 23 1004 9 100
1996192N19152 1996 51 WP MM EVE 1996-07-20 21:00:00 TS 34.1072 139.519 main 81 81 PPP___________ WP071996 34.1223 139.500 25 -1 34.1569 139.558 2 1004 0 0 34.0423 139.500 1 23 1004 8 104
1996192N19152 1996 51 WP MM EVE 1996-07-21 00:00:00 TS 34.0000 140.000 1004 tokyo main 100 100 OOO___________ jtwc_wp WP071996 33.9000 140.000 25 -1 34.1000 140.000 2 1004 0 0 0 34.0000 140.000 1 23 1004 9 107
1996192N19152 1996 51 WP MM EVE 1996-07-21 03:00:00 TS 33.8580 140.514 main 124 124 PPP___________ WP071996 33.5999 140.508 27 -1 34.0498 140.527 2 1004 0 0 33.9904 140.500 1 23 1004 9 110
1996192N19152 1996 51 WP MM EVE 1996-07-21 06:00:00 TS 33.6889 141.044 1004 tokyo main 167 167 OOO___________ jtwc_wp WP071996 33.3000 141.000 30 -1 34.0000 141.100 2 1004 0 0 0 34.0000 141.000 1 23 1004 9 110
1996192N19152 1996 51 WP MM EVE 1996-07-21 09:00:00 TS 33.5361 141.578 main 219 219 PP____________ WP071996 33.0923 141.457 32 -1 33.9799 141.699 2 1005 0 0 1 9 108
1996192N19152 1996 51 WP MM EVE 1996-07-21 12:00:00 TS 33.4000 142.100 1006 tokyo main 254 254 OO____________ jtwc_wp WP071996 32.9000 141.900 35 0 33.9000 142.300 2 1006 0 0 0 9 113
1996192N19152 1996 51 WP MM EVE 1996-07-21 15:00:00 TS 33.1760 142.607 main 300 300 PP____________ WP071996 32.6573 142.342 37 0 33.6948 142.873 2 1006 0 0 10 121
1996192N19152 1996 51 WP MM EVE 1996-07-21 18:00:00 TS 32.9000 143.100 1006 tokyo main 356 356 OO____________ jtwc_wp WP071996 32.4000 142.800 40 0 33.4000 143.400 2 1006 0 0 0 10 125
1996192N19152 1996 51 WP MM EVE 1996-07-21 21:00:00 TS 32.6034 143.567 main 413 413 PP____________ WP071996 32.1423 143.285 40 0 33.0645 143.850 2 1006 0 0 10 127
1996192N19152 1996 51 WP MM EVE 1996-07-22 00:00:00 TS 32.3000 144.050 1006 tokyo main 470 470 OO____________ jtwc_wp WP071996 31.9000 143.800 40 0 32.7000 144.300 2 1006 0 0 0 11 125
1996192N19152 1996 51 WP MM EVE 1996-07-22 03:00:00 TS 31.9987 144.589 main 527 527 PP____________ WP071996 31.6849 144.342 37 0 32.3125 144.835 2 1005 0 0 11 121
1996192N19152 1996 51 WP MM EVE 1996-07-22 06:00:00 TS 31.7500 145.150 1004 tokyo main 583 584 OO____________ jtwc_wp WP071996 31.5000 144.900 35 0 32.0000 145.400 2 1004 0 0 0 10 113
1996192N19152 1996 51 WP MM EVE 1996-07-22 09:00:00 TS 31.5987 145.715 main 634 634 PP____________ WP071996 31.3349 145.465 35 0 31.8624 145.964 2 1004 0 0 10 105
1996192N19152 1996 51 WP MM EVE 1996-07-22 12:00:00 TS 31.5000 146.250 1004 tokyo main 684 684 OO____________ jtwc_wp WP071996 31.2000 146.000 35 0 31.8000 146.500 2 1004 0 0 0 9 104
1996192N19152 1996 51 WP MM EVE 1996-07-22 15:00:00 TS 31.3885 146.722 main 719 719 PP____________ WP071996 31.0623 146.480 32 -1 31.7147 146.965 2 1004 0 0 8 105
1996192N19152 1996 51 WP MM EVE 1996-07-22 18:00:00 TS 31.3000 147.150 1004 tokyo main 761 754 OO____________ jtwc_wp WP071996 31.0000 146.900 30 -1 31.6000 147.400 2 1004 0 0 0 7 103
1996192N19152 1996 51 WP MM EVE 1996-07-22 21:00:00 TS 31.2235 147.554 main 797 797 PP____________ WP071996 31.0622 147.257 30 -1 31.3848 147.850 2 1004 0 0 7 98
1996192N19152 1996 51 WP MM EVE 1996-07-23 00:00:00 TS 31.2000 147.950 1004 tokyo main 826 826 OO____________ jtwc_wp WP071996 31.2000 147.600 30 -1 31.2000 148.300 2 1004 0 0 0 7 89
1996192N19152 1996 51 WP MM EVE 1996-07-23 03:00:00 TS 31.2411 148.371 main 856 849 PP____________ WP071996 31.3199 147.985 30 -1 31.1624 148.757 2 1005 0 0 7 78
1996192N19152 1996 51 WP MM EVE 1996-07-23 06:00:00 TS 31.3500 148.800 1006 tokyo main 873 873 OO____________ jtwc_wp WP071996 31.5000 148.400 30 -1 31.2000 149.200 2 1006 0 0 0 8 73
1996192N19152 1996 51 WP MM EVE 1996-07-23 09:00:00 TS 31.4573 149.218 main 898 898 PP____________ WP071996 31.7549 148.843 30 -1 31.1597 149.594 2 1006 0 0 8 64
1996192N19152 1996 51 WP MM EVE 1996-07-23 12:00:00 TS 31.7000 149.650 1006 tokyo main 926 920 OO____________ jtwc_wp WP071996 32.1000 149.300 30 -1 31.3000 150.000 2 1006 0 0 0 10 48
1996192N19152 1996 51 WP MM EVE 1996-07-23 15:00:00 TS 32.1386 150.114 main 937 931 PP____________ WP071996 32.5048 149.743 30 -1 31.7725 150.485 2 1006 0 0 13 37
1996192N19152 1996 51 WP MM EVE 1996-07-23 18:00:00 TS 32.7500 150.600 1006 tokyo main 946 946 OO____________ jtwc_wp WP071996 33.0000 150.200 30 -1 32.5000 151.000 2 1006 0 0 0 15 32
1996192N19152 1996 51 WP MM EVE 1996-07-23 21:00:00 TS 33.4356 151.064 main 966 959 PP____________ WP071996 33.5315 150.635 30 -1 33.3398 151.493 2 1006 0 0 17 29
1996192N19152 1996 51 WP MM EVE 1996-07-24 00:00:00 TS 34.2500 151.600 1006 tokyo main 984 984 OO____________ jtwc_wp WP071996 34.2000 151.200 30 -1 34.3000 152.000 2 1006 0 0 0 20 30
1996192N19152 1996 51 WP MM EVE 1996-07-24 03:00:00 TS 35.1509 152.259 main 1017 1012 PP____________ WP071996 35.0550 152.017 30 -1 35.2467 152.501 2 1006 0 0 22 32
1996192N19152 1996 51 WP MM EVE 1996-07-24 06:00:00 TS 36.1500 153.050 1006 tokyo main 1012 974 OO____________ jtwc_wp WP071996 36.0000 153.000 30 -1 36.3000 153.100 2 1006 0 0 0 25 33
1996192N19152 1996 51 WP MM EVE 1996-07-24 09:00:00 TS 37.2546 153.951 main 972 923 PP____________ WP071996 36.8995 154.022 30 -1 37.6097 153.879 2 1005 0 0 26 35
1996192N19152 1996 51 WP MM EVE 1996-07-24 12:00:00 ET 38.3000 154.950 1004 tokyo main 921 882 OO____________ jtwc_wp WP071996 37.8000 155.100 30 -1 38.8000 154.800 6 1004 0 0 0 24 41
1996192N19152 1996 51 WP MM EVE 1996-07-24 15:00:00 ET 39.0910 156.003 main 887 876 PP____________ WP071996 38.7001 156.231 30 -1 39.4819 155.776 6 1002 0 0 22 47
1996192N19152 1996 51 WP MM EVE 1996-07-24 18:00:00 ET 39.8000 157.050 1000 tokyo main 881 862 OO____________ jtwc_wp WP071996 39.6000 157.300 30 -1 40.0000 156.800 6 1000 0 0 0 22 46
1996192N19152 1996 51 WP MM EVE 1996-07-24 21:00:00 ET 40.6030 158.035 main 862 856 PP____________ WP071996 40.5212 158.205 30 -1 40.6848 157.866 6 1000 0 0 22 42
1996192N19152 1996 51 WP MM EVE 1996-07-25 00:00:00 ET 41.4000 158.950 1000 tokyo main 863 855 OO____________ jtwc_wp WP071996 41.4000 159.000 30 -1 41.4000 158.900 6 1000 0 0 0 20 40
1996192N19152 1996 51 WP MM EVE 1996-07-25 03:00:00 ET 42.1458 159.767 main 869 862 PP____________ WP071996 42.1932 159.724 30 -1 42.0984 159.811 6 1002 0 0 19 40
1996192N19152 1996 51 WP MM EVE 1996-07-25 06:00:00 ET 42.8500 160.600 1004 tokyo main 879 855 OO____________ jtwc_wp WP071996 42.9000 160.500 30 -1 42.8000 160.700 6 1004 0 0 0 19 45
1996192N19152 1996 51 WP MM EVE 1996-07-25 09:00:00 ET 43.5073 161.597 main 859 839 PP____________ WP071996 43.5229 161.514 30 -1 43.4918 161.680 6 1004 0 0 20 49
1996192N19152 1996 51 WP MM EVE 1996-07-25 12:00:00 ET 44.1500 162.650 1004 tokyo main 839 828 OO____________ jtwc_wp WP071996 44.1000 162.600 30 -1 44.2000 162.700 6 1004 0 0 0 20 48
1996192N19152 1996 51 WP MM EVE 1996-07-25 15:00:00 ET 44.8425 163.665 main 835 824 PP____________ WP071996 44.6985 163.595 30 -1 44.9865 163.735 6 1004 0 0 20 47
1996192N19152 1996 51 WP MM EVE 1996-07-25 18:00:00 ET 45.5000 164.700 1004 tokyo main 835 834 OO____________ jtwc_wp WP071996 45.3000 164.600 30 -1 45.7000 164.800 6 1004 0 0 0 19 52
1996192N19152 1996 51 WP MM EVE 1996-07-25 21:00:00 ET 46.0023 165.813 main 846 842 PP____________ WP071996 45.8855 165.731 30 -1 46.1190 165.894 6 1004 0 0 18 56
1996192N19152 1996 51 WP MM EVE 1996-07-26 00:00:00 ET 46.5500 166.900 1004 tokyo main 855 842 OO____________ jtwc_wp WP071996 46.5000 166.800 30 -1 46.6000 167.000 6 1004 0 0 0 19 47
1996192N19152 1996 51 WP MM EVE 1996-07-26 03:00:00 ET 47.3362 167.891 main 847 816 PP____________ WP071996 47.1684 167.649 30 -1 47.5040 168.132 6 1005 0 0 21 39
1996192N19152 1996 51 WP MM EVE 1996-07-26 06:00:00 ET 48.2000 168.850 1006 tokyo main 821 809 OO____________ jtwc_wp WP071996 47.9000 168.400 30 -1 48.5000 169.300 6 1006 0 0 0 21 37
1996192N19152 1996 51 WP MM EVE 1996-07-26 09:00:00 ET 49.0222 169.822 main 812 803 PP____________ WP071996 48.6913 169.173 30 -1 49.3531 170.470 6 1006 0 0 20 40
1996192N19152 1996 51 WP MM EVE 1996-07-26 12:00:00 ET 49.7500 170.850 1006 tokyo main 805 805 OO____________ jtwc_wp WP071996 49.5000 170.000 30 -1 50.0000 171.700 6 1006 0 0 0 19 48
1996192N19152 1996 51 WP MM EVE 1996-07-26 15:00:00 ET 50.2633 171.969 main 824 824 PP____________ WP071996 50.2489 170.937 30 -1 50.2778 173.002 6 1006 0 0 18 56
1996192N19152 1996 51 WP MM EVE 1996-07-26 18:00:00 ET 50.7500 173.200 1006 tokyo main 858 864 OO____________ jtwc_wp WP071996 51.0000 172.000 30 -1 50.5000 174.400 6 1006 0 0 0 20 55
1996192N19152 1996 51 WP MM EVE 1996-07-26 21:00:00 ET 51.4014 174.566 main 902 900 PP____________ WP071996 51.8047 173.142 30 -1 50.9981 175.991 6 1005 0 0 22 49
1996192N19152 1996 51 WP MM EVE 1996-07-27 00:00:00 ET 52.1714 175.829 1004 tokyo main 914 876 OO____________ jtwc_wp WP071996 52.6000 174.500 30 -1 51.6000 177.600 6 1004 0 0 0 22 45
1996192N19152 1996 51 WP MM EVE 1996-07-27 03:00:00 ET 52.9646 177.109 main 868 838 PP____________ WP071996 53.3437 176.139 30 -1 52.2063 179.048 6 1003 0 0 22 45
1996192N19152 1996 51 WP MM EVE 1996-07-27 06:00:00 ET 53.7600 178.480 main 836 753 OO____________ jtwc_wp WP071996 54.0000 178.000 30 -1 52.8000 180.400 6 1002 0 0 0 23 47
1996192N19152 1996 51 WP MM EVE 1996-07-27 09:00:00 NR 54.5285 179.970 main 747 640 P_____________ WP071996 54.5285 179.970 30 -1 6 0 0 24 59
1996192N19152 1996 51 EP CP EVE 1996-07-27 12:00:00 NR 55.0000 182.000 main 634 540 O_____________ jtwc_wp WP071996 55.0000 -178.000 30 -1 25 67
1996192N19152 1996 51 EP CP EVE 1996-07-27 15:00:00 NR 55.4954 184.000 main 534 461 P_____________ WP071996 55.4954 -176.000 30 -1 25 66
1996192N19152 1996 51 EP CP EVE 1996-07-27 18:00:00 NR 56.0000 186.000 main 457 O_____________ jtwc_wp WP071996 56.0000 -174.000 30 -1 24 66

Digital Typhoon Data and Search

About IBTrACS Database

This database is a web-friendly format of International Best Track Archive for Climate Stewardship (IBTrACS), a global best track data archive curated by NOAA dating back to 1842.

Updated: 2021-12-06